Time;durP1;ratioP1;P1;durP2;ratioP2;P2;SDS_P1;SDS_P2;PMS_P1;PMS_P2;Temp;Humidity;BMP_temperature;BMP_pressure;BME280_temperature;BME280_humidity;BME280_pressure;Samples;Min_cycle;Max_cycle;Signal;HPM_P1;HPM_P2
2022/06/28 00:00:31;;;;;;;10.63;2.28;;;13.00;99.90;;;;;;5022000;28;20030;-72
2022/06/28 00:02:57;;;;;;;12.90;2.15;;;13.00;99.90;;;;;;5035468;28;20036;-72
2022/06/28 00:05:23;;;;;;;12.35;1.90;;;13.00;99.90;;;;;;5028109;28;20069;-73
2022/06/28 00:07:49;;;;;;;11.48;2.00;;;13.00;99.90;;;;;;5028830;28;20499;-72
2022/06/28 00:10:16;;;;;;;12.85;2.20;;;13.00;99.90;;;;;;5020038;28;20519;-72
2022/06/28 00:12:42;;;;;;;12.85;2.10;;;13.00;99.90;;;;;;5021213;28;20487;-72
2022/06/28 00:17:56;;;;;;;11.68;1.80;;;12.90;99.90;;;;;;5038652;28;20036;-71
2022/06/28 00:20:22;;;;;;;12.30;2.15;;;12.80;99.90;;;;;;5036860;28;20159;-72
2022/06/28 00:22:47;;;;;;;12.07;2.15;;;12.70;99.90;;;;;;5029127;28;20031;-72
2022/06/28 00:25:13;;;;;;;10.05;1.90;;;12.70;99.90;;;;;;5039646;28;20050;-72
2022/06/28 00:27:40;;;;;;;13.48;2.13;;;12.60;99.90;;;;;;5041010;28;20090;-73
2022/06/28 00:30:06;;;;;;;9.95;2.10;;;12.60;99.90;;;;;;5043981;28;20112;-71
2022/06/28 00:32:32;;;;;;;13.02;2.03;;;12.70;99.90;;;;;;5031580;28;20108;-71
2022/06/28 00:34:59;;;;;;;8.02;1.73;;;12.70;99.90;;;;;;5030790;28;20061;-71
2022/06/28 00:37:25;;;;;;;10.88;1.90;;;12.80;99.90;;;;;;5046396;28;20037;-70
2022/06/28 00:39:51;;;;;;;9.20;1.88;;;12.80;99.90;;;;;;5033308;28;20076;-71
2022/06/28 00:42:17;;;;;;;10.15;1.98;;;12.80;99.90;;;;;;5025345;28;20037;-71
2022/06/28 00:44:43;;;;;;;12.45;2.67;;;12.80;99.90;;;;;;5029098;28;20040;-71
2022/06/28 00:47:09;;;;;;;12.23;1.85;;;12.90;99.90;;;;;;5019518;28;20029;-71
2022/06/28 00:49:39;;;;;;;10.43;2.28;;;12.90;99.90;;;;;;5026747;28;20026;-71
2022/06/28 00:52:06;;;;;;;10.75;1.90;;;12.90;99.90;;;;;;5022530;28;20041;-71
2022/06/28 00:54:32;;;;;;;12.23;2.05;;;13.00;99.90;;;;;;5020540;28;20033;-71
2022/06/28 00:56:58;;;;;;;9.18;2.03;;;13.00;99.90;;;;;;5028132;28;20036;-71
2022/06/28 00:59:24;;;;;;;9.77;1.90;;;13.10;99.90;;;;;;5031339;28;20139;-71
2022/06/28 01:01:50;;;;;;;12.55;2.65;;;13.00;99.90;;;;;;5025114;28;20132;-71
2022/06/28 01:04:15;;;;;;;11.80;1.90;;;12.90;99.90;;;;;;5023042;28;20083;-72
2022/06/28 01:06:42;;;;;;;11.20;1.90;;;12.80;99.90;;;;;;5024206;28;20029;-72
2022/06/28 01:09:08;;;;;;;10.25;2.28;;;12.70;99.90;;;;;;5036178;28;20044;-71
2022/06/28 01:11:33;;;;;;;11.07;1.88;;;12.60;99.90;;;;;;5020702;28;20096;-71
2022/06/28 01:14:07;;;;;;;11.77;2.00;;;12.60;99.90;;;;;;5019561;28;20403;-71
2022/06/28 01:16:33;;;;;;;10.95;2.13;;;12.60;99.90;;;;;;5015786;28;20040;-71
2022/06/28 01:18:59;;;;;;;10.40;1.90;;;12.50;99.90;;;;;;5025280;28;20502;-71
2022/06/28 01:21:27;;;;;;;11.80;2.50;;;12.40;99.90;;;;;;5022770;28;20076;-70
2022/06/28 01:23:54;;;;;;;10.02;1.90;;;12.30;99.90;;;;;;5007252;28;20108;-72
2022/06/28 01:26:20;;;;;;;8.77;1.98;;;12.10;99.90;;;;;;5033153;28;20033;-72
2022/06/28 01:28:48;;;;;;;9.93;2.08;;;11.90;99.90;;;;;;5044101;28;20120;-71
2022/06/28 01:31:14;;;;;;;9.57;1.90;;;11.80;99.90;;;;;;5036719;28;20038;-71
2022/06/28 01:33:40;;;;;;;10.25;1.98;;;11.70;99.90;;;;;;5025406;28;20366;-71
2022/06/28 01:36:07;;;;;;;11.25;1.80;;;11.60;99.90;;;;;;5018723;28;20057;-73
2022/06/28 01:38:34;;;;;;;9.70;1.75;;;11.50;99.90;;;;;;5025961;28;20037;-70
2022/06/28 01:41:00;;;;;;;8.50;2.00;;;11.50;99.90;;;;;;5015196;28;20029;-72
2022/06/28 01:43:27;;;;;;;11.05;1.60;;;11.40;99.90;;;;;;5037617;28;20095;-71
2022/06/28 01:45:54;;;;;;;10.48;2.40;;;11.30;99.90;;;;;;5013777;28;20030;-72
2022/06/28 01:48:20;;;;;;;8.15;1.80;;;11.30;99.90;;;;;;5044048;28;20033;-71
2022/06/28 01:50:47;;;;;;;9.63;1.92;;;11.20;99.90;;;;;;5014552;28;20092;-71
2022/06/28 01:53:13;;;;;;;11.40;2.17;;;11.20;99.90;;;;;;5053844;28;20032;-71
2022/06/28 01:55:39;;;;;;;7.93;1.92;;;11.30;99.90;;;;;;5054206;28;20460;-71
2022/06/28 01:58:06;;;;;;;10.95;1.83;;;11.20;99.90;;;;;;5011343;28;20045;-71
2022/06/28 02:00:31;;;;;;;8.60;2.03;;;11.20;99.90;;;;;;5014862;28;20060;-71
2022/06/28 02:02:58;;;;;;;9.32;2.03;;;11.10;99.90;;;;;;5017977;28;20568;-71
2022/06/28 02:05:24;;;;;;;11.55;2.08;;;11.10;99.90;;;;;;5029804;28;20025;-73
2022/06/28 02:07:50;;;;;;;9.88;2.00;;;11.10;99.90;;;;;;5023140;28;20069;-72
2022/06/28 02:10:19;;;;;;;11.63;1.92;;;11.20;99.90;;;;;;5027028;28;20037;-71
2022/06/28 02:12:45;;;;;;;9.70;1.92;;;11.10;99.90;;;;;;5015817;28;20029;-72
2022/06/28 02:15:12;;;;;;;10.70;2.58;;;11.10;99.90;;;;;;5017936;28;20026;-71
2022/06/28 02:17:38;;;;;;;8.57;1.52;;;11.00;99.90;;;;;;5018420;28;20038;-72
2022/06/28 02:20:04;;;;;;;7.20;1.85;;;11.00;99.90;;;;;;5012189;28;20076;-71
2022/06/28 02:22:30;;;;;;;7.60;1.92;;;11.10;99.90;;;;;;5026104;28;20068;-71
2022/06/28 02:24:56;;;;;;;12.68;1.90;;;11.00;99.90;;;;;;5018326;28;20080;-70
2022/06/28 02:27:22;;;;;;;11.55;1.95;;;11.10;99.90;;;;;;5022128;28;20129;-71
2022/06/28 02:29:47;;;;;;;15.98;2.45;;;11.10;99.90;;;;;;5028136;28;20036;-71
2022/06/28 02:32:13;;;;;;;14.30;2.00;;;11.20;99.90;;;;;;5018117;28;20414;-70
2022/06/28 02:40:21;;;;;;;10.55;2.25;;;11.30;99.90;;;;;;5018574;28;20427;-72
2022/06/28 02:42:50;;;;;;;13.50;1.92;;;11.40;99.90;;;;;;5024244;28;20155;-71
2022/06/28 02:45:17;;;;;;;12.50;2.00;;;11.40;99.90;;;;;;5023830;28;20029;-70
2022/06/28 02:47:43;;;;;;;9.23;1.85;;;11.50;99.90;;;;;;5013958;28;20035;-71
2022/06/28 02:50:09;;;;;;;14.55;2.20;;;11.60;99.90;;;;;;5013711;28;20034;-71
2022/06/28 02:52:35;;;;;;;14.75;2.55;;;11.60;99.90;;;;;;5022702;28;20029;-71
2022/06/28 02:55:00;;;;;;;11.45;2.03;;;11.70;99.90;;;;;;5019141;28;20095;-72
2022/06/28 02:57:26;;;;;;;13.30;2.20;;;11.70;99.90;;;;;;5018296;28;20472;-72
2022/06/28 02:59:51;;;;;;;10.20;1.88;;;11.80;99.90;;;;;;5015113;28;20036;-72
2022/06/28 03:02:17;;;;;;;13.88;2.35;;;11.80;99.90;;;;;;5044200;28;20042;-72
2022/06/28 03:04:43;;;;;;;13.20;1.77;;;12.00;99.90;;;;;;5010748;28;20108;-72
2022/06/28 03:07:09;;;;;;;14.88;2.30;;;12.00;99.90;;;;;;5019982;28;20034;-71
2022/06/28 03:09:34;;;;;;;13.30;2.00;;;12.10;99.90;;;;;;5011287;28;20109;-72
2022/06/28 03:12:00;;;;;;;14.38;2.05;;;12.10;99.90;;;;;;5012196;28;20037;-72
2022/06/28 03:14:26;;;;;;;14.43;2.00;;;12.10;99.90;;;;;;5016971;28;20026;-71
2022/06/28 03:16:51;;;;;;;13.50;2.08;;;12.10;99.90;;;;;;5014118;28;20118;-71
2022/06/28 03:19:17;;;;;;;11.15;2.15;;;12.20;99.90;;;;;;5047446;28;20065;-71
2022/06/28 03:21:43;;;;;;;13.63;2.20;;;12.20;99.90;;;;;;5022670;28;20029;-71
2022/06/28 03:24:08;;;;;;;11.10;1.85;;;12.20;99.90;;;;;;5023119;28;20049;-71
2022/06/28 03:26:34;;;;;;;12.25;1.95;;;12.20;99.90;;;;;;5020607;28;20038;-71
2022/06/28 03:29:00;;;;;;;13.43;2.53;;;12.20;99.90;;;;;;5012040;28;20067;-71
2022/06/28 03:31:25;;;;;;;11.13;1.95;;;12.20;99.90;;;;;;5019972;28;20428;-71
2022/06/28 03:33:51;;;;;;;13.57;2.00;;;12.20;99.90;;;;;;5027752;28;20563;-72
2022/06/28 03:36:16;;;;;;;12.57;1.95;;;12.20;99.90;;;;;;5045623;28;20120;-71
2022/06/28 03:38:42;;;;;;;9.38;1.50;;;12.20;99.90;;;;;;5022611;28;20061;-71
2022/06/28 03:41:08;;;;;;;11.60;1.98;;;12.20;99.90;;;;;;5011430;28;20053;-71
2022/06/28 03:43:33;;;;;;;9.88;2.03;;;12.10;99.90;;;;;;5024930;28;20060;-71
2022/06/28 03:45:59;;;;;;;12.40;1.98;;;12.00;99.90;;;;;;5014485;28;20029;-71
2022/06/28 03:48:25;;;;;;;7.78;1.42;;;12.00;99.90;;;;;;5022144;28;20472;-71
2022/06/28 03:50:50;;;;;;;10.98;2.08;;;11.90;99.90;;;;;;5016911;28;20070;-71
2022/06/28 03:53:16;;;;;;;8.65;1.85;;;11.80;99.90;;;;;;5024661;28;20037;-71
2022/06/28 03:55:42;;;;;;;10.48;2.13;;;11.60;99.90;;;;;;5028007;28;20056;-71
2022/06/28 03:58:08;;;;;;;10.68;2.60;;;11.50;99.90;;;;;;5016448;28;20041;-71
2022/06/28 04:00:33;;;;;;;8.70;2.28;;;11.40;99.90;;;;;;5014561;28;20056;-71
2022/06/28 04:03:00;;;;;;;12.85;2.25;;;11.30;99.90;;;;;;5024923;28;20537;-72
2022/06/28 04:05:26;;;;;;;10.38;2.25;;;11.20;99.90;;;;;;5014214;28;20033;-71
2022/06/28 04:07:52;;;;;;;9.07;2.70;;;11.10;99.90;;;;;;5022934;28;20038;-72
2022/06/28 04:10:18;;;;;;;9.77;2.00;;;11.00;99.90;;;;;;5013903;28;20052;-71
2022/06/28 04:12:43;;;;;;;9.75;2.35;;;10.90;99.90;;;;;;5022059;28;20534;-71
2022/06/28 04:15:10;;;;;;;14.88;2.15;;;10.80;99.90;;;;;;5015576;28;20438;-72
2022/06/28 04:17:35;;;;;;;11.27;2.20;;;10.70;99.90;;;;;;5017243;28;20034;-72
2022/06/28 04:20:02;;;;;;;9.80;2.10;;;10.70;99.90;;;;;;5017992;28;20052;-71
2022/06/28 04:22:28;;;;;;;8.32;2.00;;;10.60;99.90;;;;;;5023851;28;20127;-72
2022/06/28 04:24:54;;;;;;;8.52;2.22;;;10.60;99.90;;;;;;5024523;28;20170;-72
2022/06/28 04:27:19;;;;;;;12.00;2.78;;;10.60;99.90;;;;;;5023508;28;20041;-71
2022/06/28 04:29:45;;;;;;;10.52;2.25;;;10.60;99.90;;;;;;5015783;28;20032;-71
2022/06/28 04:32:11;;;;;;;12.82;2.70;;;10.60;99.90;;;;;;5012024;28;20036;-71
2022/06/28 04:34:36;;;;;;;13.98;2.60;;;10.60;99.90;;;;;;5017697;28;20038;-71
2022/06/28 04:37:02;;;;;;;13.85;2.60;;;10.50;99.90;;;;;;5024528;28;20366;-71
2022/06/28 04:39:28;;;;;;;10.02;2.20;;;10.60;99.90;;;;;;5021743;28;20038;-72
2022/06/28 04:41:54;;;;;;;10.93;2.25;;;10.60;99.90;;;;;;5018501;28;20057;-72
2022/06/28 04:44:19;;;;;;;10.43;2.30;;;10.50;99.90;;;;;;5011975;28;20084;-72
2022/06/28 04:46:45;;;;;;;9.25;2.17;;;10.50;99.90;;;;;;5049941;28;20087;-71
2022/06/28 04:49:11;;;;;;;9.80;1.73;;;10.50;99.90;;;;;;5037255;28;20084;-71
2022/06/28 04:51:36;;;;;;;11.52;2.03;;;10.50;99.90;;;;;;5017295;28;20120;-72
2022/06/28 04:54:02;;;;;;;9.73;2.17;;;10.40;99.90;;;;;;5046359;28;20080;-74
2022/06/28 04:56:28;;;;;;;7.20;1.90;;;10.50;99.90;;;;;;5031875;28;20507;-71
2022/06/28 04:58:53;;;;;;;12.93;2.22;;;10.40;99.90;;;;;;5010112;28;20034;-71
2022/06/28 05:01:19;;;;;;;11.82;2.38;;;10.40;99.90;;;;;;5011251;28;20061;-71
2022/06/28 05:03:45;;;;;;;10.15;2.60;;;10.40;99.90;;;;;;5020817;28;20029;-72
2022/06/28 05:06:11;;;;;;;9.40;2.50;;;10.40;99.90;;;;;;5022633;28;20387;-73
2022/06/28 05:08:36;;;;;;;8.02;1.90;;;10.40;99.90;;;;;;5020256;28;20067;-72
2022/06/28 05:11:03;;;;;;;10.80;2.35;;;10.50;99.90;;;;;;5036477;28;20471;-72
2022/06/28 05:13:29;;;;;;;12.43;3.03;;;10.50;99.90;;;;;;5011722;28;20697;-73
2022/06/28 05:15:54;;;;;;;7.70;2.20;;;10.50;99.90;;;;;;5010849;28;20061;-72
2022/06/28 05:18:20;;;;;;;7.72;2.30;;;10.60;99.90;;;;;;5020774;28;20036;-72
2022/06/28 05:20:46;;;;;;;10.63;2.58;;;10.60;99.90;;;;;;5025552;28;20030;-72
2022/06/28 05:23:11;;;;;;;12.13;2.78;;;10.70;99.90;;;;;;5022027;28;20400;-72
2022/06/28 05:25:37;;;;;;;12.95;2.55;;;10.80;99.90;;;;;;5013369;28;20033;-72
2022/06/28 05:28:03;;;;;;;13.82;2.78;;;10.90;99.90;;;;;;5010993;28;20497;-72
2022/06/28 05:30:29;;;;;;;10.40;2.38;;;11.00;99.90;;;;;;5020938;28;20033;-71
2022/06/28 05:32:54;;;;;;;10.98;2.53;;;11.10;99.90;;;;;;5017251;28;20025;-72
2022/06/28 05:35:20;;;;;;;12.63;2.78;;;11.30;99.90;;;;;;5030151;28;20446;-71
2022/06/28 05:37:46;;;;;;;10.52;2.70;;;11.40;99.90;;;;;;5021348;28;20029;-72
2022/06/28 05:40:12;;;;;;;9.57;2.60;;;11.60;99.90;;;;;;5016562;28;20060;-71
2022/06/28 05:42:37;;;;;;;12.45;2.30;;;11.80;99.90;;;;;;5015310;28;20105;-72
2022/06/28 05:45:03;;;;;;;13.05;2.25;;;12.00;99.90;;;;;;5013465;28;20117;-73
2022/06/28 05:47:29;;;;;;;11.63;2.13;;;12.30;99.90;;;;;;5018171;28;20092;-72
2022/06/28 05:49:54;;;;;;;9.82;1.55;;;12.60;99.90;;;;;;5012149;28;20026;-72
2022/06/28 05:52:20;;;;;;;9.57;1.73;;;12.90;99.90;;;;;;5026105;28;20033;-73
2022/06/28 05:54:46;;;;;;;9.52;1.90;;;13.20;99.90;;;;;;5027296;28;20036;-73
2022/06/28 05:57:11;;;;;;;10.70;1.70;;;13.40;99.90;;;;;;5017986;28;20033;-72
2022/06/28 05:59:37;;;;;;;17.00;2.72;;;13.70;99.90;;;;;;5013404;28;20052;-72
2022/06/28 06:02:03;;;;;;;10.93;2.33;;;13.80;99.90;;;;;;5010929;28;20038;-72
2022/06/28 06:04:28;;;;;;;10.70;1.73;;;14.00;99.90;;;;;;5011631;28;20565;-72
2022/06/28 06:06:54;;;;;;;10.05;1.48;;;14.10;99.90;;;;;;5019601;28;20029;-71
2022/06/28 06:09:20;;;;;;;5.40;1.48;;;14.30;99.90;;;;;;5020139;28;20398;-73
2022/06/28 06:11:47;;;;;;;5.55;1.23;;;14.40;99.90;;;;;;5019666;28;20042;-72
2022/06/28 06:14:14;;;;;;;8.63;1.33;;;14.50;99.90;;;;;;5013397;28;20049;-71
2022/06/28 06:16:40;;;;;;;12.90;2.00;;;14.50;99.90;;;;;;5025523;28;20064;-71
2022/06/28 06:19:06;;;;;;;9.68;1.35;;;14.60;99.90;;;;;;5024492;28;20034;-71
2022/06/28 06:21:31;;;;;;;9.40;1.40;;;14.70;99.90;;;;;;5025560;28;20150;-72
2022/06/28 06:23:57;;;;;;;7.78;1.15;;;14.80;99.90;;;;;;5025923;28;20057;-72
2022/06/28 06:26:24;;;;;;;10.48;1.58;;;14.90;99.90;;;;;;5026753;28;20167;-73
2022/06/28 06:28:50;;;;;;;6.88;1.15;;;15.00;99.90;;;;;;5020802;28;20030;-73
2022/06/28 06:31:16;;;;;;;8.55;1.60;;;15.10;99.90;;;;;;5043170;28;20036;-72
2022/06/28 06:33:42;;;;;;;12.13;2.00;;;15.20;99.90;;;;;;5027969;28;20033;-73
2022/06/28 06:36:07;;;;;;;8.00;1.63;;;15.40;99.90;;;;;;5028707;28;20117;-73
2022/06/28 06:38:33;;;;;;;10.38;1.73;;;15.40;99.90;;;;;;5025781;28;20116;-73
2022/06/28 06:40:59;;;;;;;8.00;1.60;;;15.50;99.90;;;;;;5020157;28;20061;-73
2022/06/28 06:43:28;;;;;;;9.15;1.48;;;15.60;99.90;;;;;;5007247;28;21819;-74
2022/06/28 06:45:54;;;;;;;8.52;1.52;;;15.80;99.90;;;;;;5017890;28;20037;-76
2022/06/28 06:48:23;;;;;;;7.95;1.73;;;15.80;99.90;;;;;;5013845;28;20052;-72
2022/06/28 06:50:49;;;;;;;9.10;1.42;;;15.90;99.90;;;;;;5023502;28;20459;-72
2022/06/28 06:53:15;;;;;;;7.75;1.20;;;16.10;99.90;;;;;;5019004;28;20042;-74
2022/06/28 06:55:42;;;;;;;10.13;1.52;;;16.10;99.90;;;;;;5017397;28;20418;-76
2022/06/28 06:58:08;;;;;;;10.20;1.55;;;16.20;99.90;;;;;;5043642;28;20060;-76
2022/06/28 07:00:34;;;;;;;5.90;1.17;;;16.20;99.90;;;;;;5022548;28;20041;-74
2022/06/28 07:03:02;;;;;;;4.97;1.20;;;16.20;99.90;;;;;;5045324;28;20119;-75
2022/06/28 07:05:28;;;;;;;9.98;1.63;;;16.20;99.90;;;;;;5026395;28;20057;-73
2022/06/28 07:07:54;;;;;;;4.93;1.65;;;16.20;99.90;;;;;;5033706;28;20045;-73
2022/06/28 07:10:20;;;;;;;7.63;1.42;;;16.30;99.90;;;;;;5032745;28;20440;-74
2022/06/28 07:12:46;;;;;;;6.70;1.50;;;16.30;99.90;;;;;;5054846;28;20120;-73
2022/06/28 07:15:12;;;;;;;7.05;1.20;;;16.40;99.90;;;;;;5023213;28;20040;-73
2022/06/28 07:17:38;;;;;;;8.55;1.40;;;16.40;99.90;;;;;;5045267;28;20029;-73
2022/06/28 07:20:05;;;;;;;8.68;1.48;;;16.60;99.90;;;;;;5023575;28;20021;-73
2022/06/28 07:22:30;;;;;;;7.53;1.15;;;16.60;99.90;;;;;;5018385;28;20041;-73
2022/06/28 07:24:56;;;;;;;9.68;1.30;;;16.70;99.90;;;;;;5011674;28;20049;-72
2022/06/28 07:27:22;;;;;;;7.97;1.30;;;16.70;99.90;;;;;;5019533;28;20120;-73
2022/06/28 07:29:49;;;;;;;6.93;1.55;;;16.70;99.90;;;;;;5015542;28;20107;-72
2022/06/28 07:32:15;;;;;;;7.75;1.10;;;16.70;99.90;;;;;;5017210;28;20063;-71
2022/06/28 07:34:41;;;;;;;8.45;1.10;;;16.80;99.90;;;;;;5023978;28;20030;-72
2022/06/28 07:37:06;;;;;;;6.97;1.23;;;16.80;99.90;;;;;;5008452;28;20049;-71
2022/06/28 07:39:32;;;;;;;8.20;1.10;;;16.80;99.90;;;;;;5012971;28;20038;-71
2022/06/28 07:41:58;;;;;;;6.80;1.38;;;16.70;99.90;;;;;;5029700;28;20037;-71
2022/06/28 07:44:24;;;;;;;7.95;1.50;;;16.50;99.90;;;;;;5027861;28;20029;-71
2022/06/28 07:46:49;;;;;;;9.07;1.60;;;16.40;99.90;;;;;;5024453;28;20806;-71
2022/06/28 07:49:15;;;;;;;9.38;1.35;;;16.30;99.90;;;;;;5023600;28;20033;-73
2022/06/28 07:54:25;;;;;;;6.70;1.17;;;16.40;99.90;;;;;;5022265;28;20053;-73
2022/06/28 07:56:51;;;;;;;6.82;1.08;;;16.60;99.90;;;;;;5010899;28;20029;-72
2022/06/28 07:59:17;;;;;;;6.57;1.08;;;16.90;99.90;;;;;;5015126;28;20044;-71
2022/06/28 08:01:42;;;;;;;8.45;1.50;;;17.10;99.90;;;;;;5047341;28;20030;-72
2022/06/28 08:04:09;;;;;;;6.30;1.92;;;17.40;99.90;;;;;;5013529;28;20547;-75
2022/06/28 08:06:36;;;;;;;7.82;1.17;;;17.60;99.90;;;;;;5018031;28;20377;-75
2022/06/28 08:09:01;;;;;;;7.75;1.27;;;17.70;97.20;;;;;;5010787;28;20447;-77
2022/06/28 08:11:27;;;;;;;6.35;1.27;;;17.80;97.70;;;;;;5011322;28;20033;-76
2022/06/28 08:13:54;;;;;;;5.13;0.80;;;17.90;98.20;;;;;;5016766;28;20034;-76
2022/06/28 08:16:23;;;;;;;7.47;1.45;;;18.00;96.00;;;;;;5015261;28;20036;-74
2022/06/28 08:18:49;;;;;;;4.68;1.00;;;18.10;96.30;;;;;;5013161;28;20071;-74
2022/06/28 08:21:14;;;;;;;7.05;1.17;;;18.10;96.30;;;;;;5017877;28;20892;-75
2022/06/28 08:23:40;;;;;;;7.07;1.17;;;18.30;96.50;;;;;;5015550;28;20049;-78
2022/06/28 08:26:06;;;;;;;6.53;1.10;;;18.50;95.00;;;;;;5016798;28;20052;-75
2022/06/28 08:28:32;;;;;;;7.32;1.20;;;18.80;96.60;;;;;;5015294;28;20045;-78
2022/06/28 08:30:58;;;;;;;7.05;1.02;;;18.90;96.50;;;;;;5018446;28;20138;-77
2022/06/28 08:33:24;;;;;;;6.53;1.23;;;18.80;95.60;;;;;;5009651;28;20026;-75
2022/06/28 08:35:49;;;;;;;7.22;1.00;;;18.80;94.70;;;;;;5025325;28;20031;-76
2022/06/28 08:38:15;;;;;;;11.00;1.45;;;18.90;95.00;;;;;;5027321;28;20044;-79
2022/06/28 08:40:43;;;;;;;5.22;0.90;;;18.70;94.90;;;;;;5012236;28;20099;-77
2022/06/28 08:43:08;;;;;;;11.88;1.52;;;18.50;95.50;;;;;;5013486;28;20041;-75
2022/06/28 08:45:36;;;;;;;7.40;1.10;;;18.30;96.60;;;;;;5014712;28;20033;-77
2022/06/28 08:48:13;;;;;;;5.97;1.10;;;18.20;97.10;;;;;;5015817;28;20389;-77
2022/06/28 08:50:41;;;;;;;7.53;1.30;;;18.20;96.50;;;;;;5010349;28;20340;-78
2022/06/28 08:53:09;;;;;;;8.32;0.80;;;18.20;97.60;;;;;;5025402;28;20053;-73
2022/06/28 08:55:36;;;;;;;6.97;1.25;;;18.30;97.70;;;;;;5025802;28;20079;-77
2022/06/28 08:58:05;;;;;;;5.72;1.00;;;18.50;98.60;;;;;;5018055;28;20080;-77
2022/06/28 09:00:31;;;;;;;5.28;0.88;;;18.80;96.80;;;;;;5017366;28;20025;-74
2022/06/28 09:02:57;;;;;;;6.45;1.08;;;18.90;94.90;;;;;;5010579;28;20065;-73
2022/06/28 09:05:25;;;;;;;5.47;0.90;;;19.00;95.40;;;;;;5020442;28;20030;-76
2022/06/28 09:07:54;;;;;;;6.53;1.00;;;19.10;96.20;;;;;;5027349;28;20235;-75
2022/06/28 09:10:20;;;;;;;8.10;1.00;;;19.20;93.60;;;;;;5024487;28;20032;-73
2022/06/28 09:12:55;;;;;;;5.60;0.80;;;19.20;94.30;;;;;;5019171;28;20029;-72
2022/06/28 09:15:22;;;;;;;4.85;1.00;;;19.10;94.40;;;;;;5015032;28;20499;-71
2022/06/28 09:17:52;;;;;;;4.78;1.00;;;19.10;95.80;;;;;;5010208;28;20055;-75
2022/06/28 09:20:18;;;;;;;4.25;1.13;;;19.10;94.80;;;;;;5021910;28;20029;-75
2022/06/28 09:22:45;;;;;;;4.13;1.08;;;19.10;94.30;;;;;;5022455;28;20681;-78
2022/06/28 09:25:23;;;;;;;6.57;1.10;;;19.30;94.60;;;;;;5027711;28;20041;-75
2022/06/28 09:27:48;;;;;;;7.68;1.20;;;19.40;92.70;;;;;;5047561;28;20042;-74
2022/06/28 09:30:14;;;;;;;6.40;0.90;;;19.50;93.30;;;;;;5010493;28;20037;-76
2022/06/28 09:32:40;;;;;;;5.72;1.00;;;19.50;92.10;;;;;;5010195;28;20045;-74
2022/06/28 09:35:10;;;;;;;6.32;1.10;;;19.40;93.80;;;;;;5047438;28;20022;-76
2022/06/28 09:37:53;;;;;;;6.68;1.08;;;19.20;92.30;;;;;;5019753;28;20033;-71
2022/06/28 09:40:33;;;;;;;6.72;1.00;;;19.10;93.50;;;;;;5005847;28;20030;-71
2022/06/28 09:43:06;;;;;;;;;;;19.20;93.00;;;;;;5029317;28;20077;-72
2022/06/28 09:45:36;;;;;;;5.38;1.30;;;19.20;94.00;;;;;;5020181;28;20314;-74
2022/06/28 09:48:03;;;;;;;6.13;0.90;;;19.20;93.30;;;;;;5018734;28;20033;-76
2022/06/28 09:50:32;;;;;;;5.65;1.30;;;19.30;93.80;;;;;;5022646;28;20034;-78
2022/06/28 09:52:59;;;;;;;7.33;0.93;;;19.30;93.90;;;;;;5015793;28;20037;-76
2022/06/28 09:55:28;;;;;;;6.65;1.42;;;19.30;93.00;;;;;;5016692;28;20277;-78
2022/06/28 09:57:54;;;;;;;3.97;1.00;;;19.50;92.50;;;;;;5018553;28;20069;-77
2022/06/28 10:00:21;;;;;;;7.05;1.00;;;19.70;90.00;;;;;;5011991;28;20271;-77
2022/06/28 10:02:47;;;;;;;4.75;0.80;;;19.60;85.00;;;;;;5021769;28;20041;-78
2022/06/28 10:05:13;;;;;;;4.90;1.10;;;19.60;88.70;;;;;;5019609;28;20044;-78
2022/06/28 10:07:40;;;;;;;5.60;0.73;;;19.50;86.90;;;;;;5012108;28;20045;-76
2022/06/28 10:10:08;;;;;;;5.43;0.90;;;19.30;86.00;;;;;;5009557;28;20037;-80
2022/06/28 10:15:33;;;;;;;5.93;0.93;;;19.10;90.80;;;;;;5015096;28;20029;-78
2022/06/28 10:18:08;;;;;;;3.08;0.88;;;19.10;89.00;;;;;;5031618;28;20033;-78
2022/06/28 10:20:36;;;;;;;4.15;1.02;;;19.10;74.90;;;;;;5021335;28;20092;-77
2022/06/28 10:23:23;;;;;;;4.27;0.63;;;19.40;75.10;;;;;;5023988;28;20033;-78
2022/06/28 10:26:15;;;;;;;4.32;0.80;;;19.40;74.30;;;;;;5037385;28;20068;-77
2022/06/28 10:28:46;;;;;;;4.53;0.85;;;19.10;85.40;;;;;;5047507;28;20049;-79
2022/06/28 10:31:20;;;;;;;5.88;1.20;;;18.90;89.90;;;;;;5014442;28;20129;-76
2022/06/28 10:33:48;;;;;;;3.40;0.70;;;19.00;93.30;;;;;;5019487;28;20172;-77
2022/06/28 10:36:15;;;;;;;6.93;0.82;;;19.20;93.00;;;;;;5012813;28;20038;-77
2022/06/28 10:39:01;;;;;;;6.53;0.95;;;19.30;94.90;;;;;;5011439;28;20034;-76
2022/06/28 10:41:45;;;;;;;5.10;0.80;;;19.60;93.70;;;;;;5034983;28;20119;-74
2022/06/28 10:44:23;;;;;;;5.85;0.95;;;20.00;91.60;;;;;;5011381;28;20065;-78
2022/06/28 10:47:05;;;;;;;3.60;1.00;;;20.20;92.70;;;;;;5006847;28;20030;-76
2022/06/28 10:49:46;;;;;;;6.20;1.05;;;20.30;91.20;;;;;;5017701;28;20034;-77
2022/06/28 10:52:14;;;;;;;4.82;0.90;;;20.50;84.70;;;;;;5030547;28;20033;-76
2022/06/28 10:54:57;;;;;;;3.83;0.70;;;20.50;85.00;;;;;;5016655;28;20057;-77
2022/06/28 10:57:23;;;;;;;4.55;0.82;;;20.40;83.50;;;;;;5028771;28;20052;-75
2022/06/28 10:59:52;;;;;;;3.67;0.93;;;20.20;83.70;;;;;;5023697;28;20083;-75
2022/06/28 11:02:18;;;;;;;4.30;0.85;;;20.10;86.90;;;;;;5023980;28;20040;-77
2022/06/28 11:04:45;;;;;;;5.07;1.00;;;20.30;84.40;;;;;;5024077;28;20025;-77
2022/06/28 11:07:22;;;;;;;5.68;1.23;;;20.60;88.10;;;;;;5024804;28;20030;-76
2022/06/28 11:10:04;;;;;;;4.18;0.65;;;20.70;89.90;;;;;;5023940;28;20040;-75
2022/06/28 11:12:30;;;;;;;4.20;1.15;;;20.80;60.60;;;;;;5023148;28;20025;-76
2022/06/28 11:15:36;;;;;;;5.50;1.30;;;20.80;80.00;;;;;;5019211;28;20388;-74
2022/06/28 11:18:13;;;;;;;5.07;1.30;;;21.00;86.00;;;;;;5055444;28;20124;-75
2022/06/28 11:20:39;;;;;;;5.78;1.42;;;21.60;79.20;;;;;;5022871;28;20623;-74
2022/06/28 11:23:05;;;;;;;8.02;1.40;;;22.30;78.30;;;;;;5021580;28;20120;-79
2022/06/28 11:28:16;;;;;;;8.57;1.95;;;24.70;55.50;;;;;;5023126;28;20044;-75
2022/06/28 11:30:43;;;;;;;5.18;1.80;;;24.40;57.20;;;;;;5023092;28;20057;-77
2022/06/28 11:33:11;;;;;;;4.43;1.73;;;24.40;56.20;;;;;;5019272;28;20182;-73
2022/06/28 11:35:37;;;;;;;5.50;1.88;;;23.90;58.10;;;;;;5018799;28;20068;-78
2022/06/28 11:38:09;;;;;;;4.88;1.73;;;23.60;63.30;;;;;;5033624;28;20030;-74
2022/06/28 11:40:55;;;;;;;6.20;1.98;;;22.90;62.20;;;;;;5018540;28;20037;-74
2022/06/28 11:43:30;;;;;;;5.43;2.10;;;22.50;67.90;;;;;;5018300;28;20096;-74
2022/06/28 11:45:56;;;;;;;5.13;2.38;;;22.10;71.90;;;;;;5022043;28;20025;-74
2022/06/28 11:48:29;;;;;;;6.18;2.15;;;21.50;77.50;;;;;;5015498;28;20507;-76
2022/06/28 11:50:56;;;;;;;5.80;2.17;;;21.40;83.20;;;;;;5016593;28;20041;-74
2022/06/28 11:53:23;;;;;;;7.28;2.90;;;21.20;86.30;;;;;;5021473;28;20527;-74
2022/06/28 11:55:52;;;;;;;6.45;2.90;;;21.40;90.80;;;;;;5021649;28;20026;-75
2022/06/28 11:58:23;;;;;;;7.87;3.50;;;21.50;91.40;;;;;;5022745;28;20585;-77
2022/06/28 12:01:12;;;;;;;6.20;2.80;;;21.30;91.50;;;;;;5022386;28;20037;-73
2022/06/28 12:03:43;;;;;;;6.28;2.60;;;21.20;91.70;;;;;;5019233;28;20480;-73
2022/06/28 12:06:10;;;;;;;9.90;3.50;;;21.10;91.50;;;;;;5022548;28;20117;-75
2022/06/28 12:08:53;;;;;;;6.47;1.98;;;20.80;93.80;;;;;;5021577;28;20037;-74
2022/06/28 12:11:40;;;;;;;6.25;2.35;;;20.50;92.50;;;;;;5022213;28;20253;-75
2022/06/28 12:14:09;;;;;;;4.63;1.63;;;20.10;94.00;;;;;;5023962;28;20029;-73
2022/06/28 12:16:39;;;;;;;4.22;1.50;;;20.00;95.00;;;;;;5022644;28;20030;-74
2022/06/28 12:19:12;;;;;;;6.30;1.80;;;20.00;95.60;;;;;;5016487;28;20041;-74
2022/06/28 12:21:38;;;;;;;5.65;2.13;;;20.30;96.30;;;;;;5035160;28;20029;-73
2022/06/28 12:24:04;;;;;;;6.85;2.38;;;20.70;94.50;;;;;;5021871;28;20586;-74
2022/06/28 12:26:39;;;;;;;6.18;1.55;;;20.70;93.90;;;;;;5019976;28;20064;-74
2022/06/28 12:29:05;;;;;;;6.50;1.58;;;20.70;94.20;;;;;;5013399;28;20038;-77
2022/06/28 12:31:31;;;;;;;6.82;1.77;;;20.60;93.70;;;;;;5019847;28;20025;-77
2022/06/28 12:33:56;;;;;;;5.72;1.95;;;20.30;95.40;;;;;;5017330;28;20875;-77
2022/06/28 12:36:22;;;;;;;3.58;1.00;;;20.20;96.50;;;;;;5016822;28;20068;-75
2022/06/28 12:38:48;;;;;;;7.07;1.42;;;20.10;95.60;;;;;;5017851;28;20041;-76
2022/06/28 12:41:13;;;;;;;4.93;1.33;;;19.90;96.50;;;;;;5020311;28;20029;-77
2022/06/28 12:43:39;;;;;;;8.02;1.85;;;19.80;96.80;;;;;;5017572;28;20065;-76
2022/06/28 12:46:05;;;;;;;8.30;2.72;;;19.80;97.30;;;;;;5019387;28;20037;-76
2022/06/28 12:48:32;;;;;;;4.88;1.17;;;20.20;98.00;;;;;;5016113;28;20127;-75
2022/06/28 12:50:58;;;;;;;11.52;6.40;;;20.60;96.70;;;;;;5021453;28;20753;-74
2022/06/28 12:53:24;;;;;;;8.23;3.78;;;20.90;94.90;;;;;;5018000;28;20040;-73
2022/06/28 12:55:50;;;;;;;17.52;9.95;;;21.40;95.40;;;;;;5016615;28;20034;-73
2022/06/28 12:58:16;;;;;;;7.18;2.40;;;21.80;94.00;;;;;;5017966;28;20065;-78
2022/06/28 13:00:42;;;;;;;9.98;3.47;;;22.00;92.90;;;;;;5019619;28;20074;-77